»·PEaware :: UAL497 KSFO-KSAN

UAL497 :: KSFO-KSAN

FLIGHT INFORMATION

Flight Status: Arrived
Operator:
United Airlines
More flights by this operator :: More flights under this callsign
Pilot: Tyler B. (19112)
Aircraft: BOEING 737-800
(B738)
More flights by this aircraft type
Origin: KSFO San Francisco Intl
United States
Destination: KSAN San Diego Intl-Lindbergh
United States
More flights between these airports :: More routes between these airports
Route: +OFFSH1 MCKEY LAX COMIX1
File this flight plan on PilotEdge
Remarks: PBN / A1B1C1D1S1S2 DOF / 180505 REG / N53442 EET / KZLA0028 OPR / UAL PER / C RMK / TCAS SIMBRIEF
Altitude:
(Current/Filed)
37,000ft
Speed:
(Current/Filed)
456kts
Departed: 05-May-18 02:02 PM
Arrived: 05-May-18 03:20 PM
Distance/Time
Traveled:
388nm/1:18
Distance/Time
To Go:
Arrived

Flight Plot

Page will automatically refresh every two minutes.

Flight plan parsing failed; only flown route is shown


Map Options




Map Legend


Flown Route
Filed Route
Departure Airport
Arrival Airport
Navaid (VOR, NDB)
Fix

Horizontal Profiles

Position Reports

Time Latitude Longitude Heading Altitude Ground
Speed
05-May-18 13:21 37.619754 -122.384003 213 31ft 0kts
05-May-18 13:22 37.619754 -122.384003 213 31ft 0kts
05-May-18 13:23 37.619754 -122.384003 213 31ft 0kts
05-May-18 13:24 37.619754 -122.384003 213 31ft 0kts
05-May-18 13:25 37.619754 -122.384003 213 31ft 0kts
05-May-18 13:26 37.619754 -122.384003 213 31ft 0kts
05-May-18 13:27 37.619754 -122.384003 213 31ft 0kts
05-May-18 13:29 37.619754 -122.384003 213 31ft 0kts
05-May-18 13:30 37.619754 -122.384003 213 31ft 0kts
05-May-18 13:31 37.619186 -122.383517 291 30ft 0kts
05-May-18 13:32 37.619186 -122.383517 291 30ft 0kts
05-May-18 13:33 37.619186 -122.383517 291 30ft 0kts
05-May-18 13:34 37.619186 -122.383517 291 30ft 0kts
05-May-18 13:35 37.619186 -122.383517 291 30ft 0kts
05-May-18 13:36 37.619186 -122.383517 291 31ft 0kts
05-May-18 13:37 37.619186 -122.383517 291 31ft 0kts
05-May-18 13:38 37.619186 -122.383517 291 31ft 0kts
05-May-18 13:39 37.619186 -122.383517 291 31ft 0kts
05-May-18 13:40 37.619186 -122.383517 291 31ft 0kts
05-May-18 13:41 37.619186 -122.383517 291 31ft 0kts
05-May-18 13:42 37.619186 -122.383517 291 31ft 0kts
05-May-18 13:44 37.619186 -122.383517 291 31ft 0kts
05-May-18 13:45 37.619186 -122.383517 291 31ft 0kts
05-May-18 13:46 37.619186 -122.383517 291 31ft 0kts
05-May-18 13:47 37.619186 -122.383517 291 31ft 0kts
05-May-18 13:48 37.619186 -122.383517 291 31ft 0kts
05-May-18 13:49 37.619186 -122.383517 291 31ft 0kts
05-May-18 13:50 37.619186 -122.383517 291 31ft 0kts
05-May-18 13:51 37.619186 -122.383517 291 31ft 0kts
05-May-18 13:52 37.619180 -122.383495 291 31ft 1kts
05-May-18 13:53 37.618708 -122.383134 6 31ft 2kts
05-May-18 13:54 37.618501 -122.383221 32 31ft 0kts
05-May-18 13:55 37.618502 -122.383221 32 30ft 0kts
05-May-18 13:56 37.618502 -122.383221 32 30ft 0kts
05-May-18 13:57 37.619429 -122.381453 118 31ft 16kts
05-May-18 13:58 37.614651 -122.380949 207 31ft 21kts
05-May-18 13:59 37.609753 -122.384385 212 31ft 14kts
05-May-18 14:00 37.608460 -122.383783 117 30ft 0kts
05-May-18 14:01 37.608454 -122.383768 117 31ft 1kts
05-May-18 14:02 37.619175 -122.375465 21 22ft 147kts
05-May-18 14:03 37.666894 -122.359955 348 2082ft 224kts
05-May-18 14:04 37.715154 -122.390147 270 4787ft 246kts
05-May-18 14:05 37.660533 -122.406097 126 8254ft 284kts
05-May-18 14:06 37.650755 -122.305254 107 11040ft 313kts
05-May-18 14:07 37.585424 -122.272256 218 14018ft 312kts
05-May-18 14:08 37.564004 -122.379518 260 16866ft 335kts
05-May-18 14:09 37.556277 -122.497394 260 19516ft 344kts
05-May-18 14:10 37.548301 -122.617411 260 21946ft 351kts
05-May-18 14:11 37.497450 -122.705563 194 24056ft 340kts
05-May-18 14:12 37.401945 -122.688112 172 25913ft 359kts
05-May-18 14:13 37.303306 -122.661970 173 27637ft 369kts
05-May-18 14:14 37.202085 -122.635261 174 29206ft 379kts
05-May-18 14:15 37.099394 -122.608208 174 30952ft 379kts
05-May-18 14:16 36.995143 -122.580894 175 32174ft 389kts
05-May-18 14:17 36.888771 -122.553122 175 33474ft 392kts
05-May-18 14:18 36.783316 -122.525638 175 34834ft 391kts
05-May-18 14:19 36.677865 -122.498241 175 36064ft 388kts
05-May-18 14:20 36.572261 -122.470901 175 37070ft 388kts
05-May-18 14:21 36.463459 -122.443000 174 37146ft 415kts
05-May-18 14:22 36.365441 -122.354809 135 37137ft 467kts
05-May-18 14:23 36.282825 -122.231402 136 37124ft 466kts
05-May-18 14:24 36.199396 -122.109140 136 37124ft 466kts
05-May-18 14:25 36.115841 -121.987626 137 37125ft 466kts
05-May-18 14:26 36.032012 -121.866335 137 37126ft 466kts
05-May-18 14:27 35.947885 -121.745141 137 37127ft 466kts
05-May-18 14:28 35.863908 -121.624649 137 37123ft 466kts
05-May-18 14:29 35.779721 -121.504317 137 37086ft 466kts
05-May-18 14:30 35.697441 -121.387149 137 37063ft 466kts
05-May-18 14:31 35.613033 -121.267344 137 37052ft 465kts
05-May-18 14:32 35.528388 -121.147643 137 37053ft 464kts
05-May-18 14:33 35.447139 -121.024635 129 37076ft 468kts
05-May-18 14:34 35.373639 -120.894693 129 37089ft 465kts
05-May-18 14:35 35.300623 -120.769491 130 37092ft 464kts
05-May-18 14:36 35.226465 -120.644322 130 37092ft 465kts
05-May-18 14:37 35.150840 -120.516683 129 37096ft 465kts
05-May-18 14:38 35.073920 -120.386713 129 37117ft 485kts
05-May-18 14:39 34.995770 -120.254256 129 37106ft 488kts
05-May-18 14:40 34.916648 -120.119971 128 37095ft 490kts
05-May-18 14:41 34.838071 -119.986338 127 37084ft 490kts
05-May-18 14:42 34.758913 -119.851485 127 37060ft 491kts
05-May-18 14:43 34.681073 -119.715807 126 37056ft 491kts
05-May-18 14:44 34.603294 -119.580176 126 37057ft 492kts
05-May-18 14:45 34.525151 -119.444442 126 37055ft 491kts
05-May-18 14:46 34.448206 -119.311291 127 37047ft 496kts
05-May-18 14:47 34.369387 -119.175309 127 37044ft 497kts
05-May-18 14:48 34.290361 -119.039502 127 37044ft 497kts
05-May-18 14:49 34.211978 -118.905365 126 37048ft 497kts
05-May-18 14:50 34.132627 -118.770074 126 37051ft 495kts
05-May-18 14:51 34.053065 -118.634885 126 37039ft 495kts
05-May-18 14:52 33.974722 -118.502233 126 36875ft 477kts
05-May-18 14:53 33.896171 -118.381394 133 34124ft 464kts
05-May-18 14:54 33.812217 -118.273455 134 31242ft 462kts
05-May-18 14:55 33.727696 -118.163681 134 28966ft 442kts
05-May-18 14:56 33.646867 -118.057847 134 26710ft 424kts
05-May-18 14:57 33.570041 -117.957468 134 24045ft 390kts
05-May-18 14:58 33.493760 -117.865396 137 22106ft 388kts
05-May-18 14:59 33.418169 -117.777020 136 20038ft 375kts
05-May-18 15:00 33.346744 -117.690216 135 18050ft 360kts
05-May-18 15:01 33.278301 -117.607151 135 16151ft 345kts
05-May-18 15:02 33.204694 -117.536824 146 14393ft 334kts
05-May-18 15:03 33.128083 -117.473979 145 12822ft 333kts
05-May-18 15:04 33.053634 -117.412394 145 11301ft 325kts
05-May-18 15:05 32.983655 -117.354010 145 10490ft 289kts
05-May-18 15:06 32.922635 -117.303087 145 9909ft 255kts
05-May-18 15:07 32.864930 -117.255197 146 8837ft 258kts
05-May-18 15:08 32.810005 -117.201612 114 7791ft 263kts
05-May-18 15:08 32.793211 -117.134329 102 6887ft 255kts
05-May-18 15:09 32.774489 -117.051491 106 6375ft 256kts
05-May-18 15:11 32.756113 -116.960111 104 4996ft 220kts
05-May-18 15:12 32.742325 -116.890271 104 5012ft 216kts
05-May-18 15:13 32.706690 -116.858780 232 5050ft 200kts
05-May-18 15:14 32.692221 -116.921177 234 5057ft 203kts
05-May-18 15:15 32.680301 -116.979969 289 4092ft 189kts
05-May-18 15:15 32.693710 -117.027079 286 3123ft 174kts
05-May-18 15:16 32.706936 -117.080176 287 1915ft 157kts
05-May-18 15:17 32.718008 -117.125621 287 1062ft 143kts
05-May-18 15:18 32.728759 -117.169907 287 212ft 138kts
05-May-18 15:19 32.735218 -117.197934 252 17ft 17kts
05-May-18 15:20 32.734938 -117.198885 251 17ft 0kts
05-May-18 15:21 32.734938 -117.198885 251 17ft 0kts
05-May-18 15:22 32.735316 -117.201132 290 17ft 19kts
05-May-18 15:23 32.733068 -117.202550 165 17ft 11kts
05-May-18 15:24 32.732258 -117.202359 183 17ft 0kts
05-May-18 15:25 32.732258 -117.202359 183 17ft 0kts
05-May-18 15:26 32.732258 -117.202359 183 17ft 0kts

Navigation Log

Ident Type
Flight plan parsing failed, navigation log unavailable